Time;durP1;ratioP1;P1;durP2;ratioP2;P2;SDS_P1;SDS_P2;PMS_P1;PMS_P2;Temp;Humidity;BMP_temperature;BMP_pressure;BME280_temperature;BME280_humidity;BME280_pressure;Samples;Min_cycle;Max_cycle;Signal;HPM_P1;HPM_P2
2021/12/26 11:36:01;;;;;;;1506.25;999.90;;;20.60;54.70;;;;;;9318451;19;20828;-67
2021/12/26 11:41:49;;;;;;;1.08;0.30;;;20.50;51.60;;;;;;9033086;19;20714;-67
2021/12/26 11:45:24;;;;;;;0.40;0.40;;;20.50;51.50;;;;;;9202460;19;20549;-67
2021/12/26 11:49:28;;;;;;;0.60;0.60;;;20.50;50.40;;;;;;9178852;19;20011;-67
2021/12/26 11:53:23;;;;;;;1.15;0.90;;;20.50;51.00;;;;;;9099469;19;20018;-66
2021/12/26 11:59:05;;;;;;;1.60;1.40;;;20.70;51.80;;;;;;8833735;19;20690;-65
2021/12/26 12:04:14;;;;;;;2.63;1.42;;;20.50;50.10;;;;;;9134019;19;20691;-66
2021/12/26 12:07:23;;;;;;;2.65;2.17;;;20.50;50.60;;;;;;9173318;19;20477;-66
2021/12/26 12:10:57;;;;;;;3.65;2.55;;;20.40;50.60;;;;;;9214550;19;20038;-66
2021/12/26 12:14:03;;;;;;;5.97;3.22;;;20.30;50.80;;;;;;9217291;19;20518;-67
2021/12/26 12:17:17;;;;;;;4.85;3.47;;;20.20;50.80;;;;;;9165247;19;20015;-67
2021/12/26 12:20:26;;;;;;;5.50;4.22;;;20.20;51.40;;;;;;9219687;19;20018;-66
2021/12/26 12:23:31;;;;;;;7.05;5.25;;;20.30;51.10;;;;;;9220136;19;20056;-67
2021/12/26 12:26:51;;;;;;;7.55;5.85;;;20.40;50.50;;;;;;9212662;19;20026;-65
2021/12/26 12:33:39;;;;;;;1.30;1.20;;;20.60;70.50;;;;;;9181601;19;24853;-70
2021/12/26 12:36:45;;;;;;;1.42;1.23;;;19.80;73.70;;;;;;9159533;19;20034;-71
2021/12/26 12:40:15;;;;;;;2.92;1.65;;;18.10;70.60;;;;;;9160495;19;20125;-70
2021/12/26 12:43:22;;;;;;;3.00;1.80;;;16.10;69.80;;;;;;9119476;19;20499;-71
2021/12/26 12:47:00;;;;;;;3.65;2.10;;;14.20;71.60;;;;;;8627828;19;10386659;-71
2021/12/26 12:53:46;;;;;;;3.50;2.50;;;11.00;75.50;;;;;;9202954;19;20462;-71
2021/12/26 12:57:02;;;;;;;4.47;2.40;;;9.70;77.30;;;;;;9205290;19;20018;-71
2021/12/26 13:00:30;;;;;;;3.97;1.90;;;8.70;79.30;;;;;;9204236;19;20029;-70
2021/12/26 13:03:40;;;;;;;5.50;1.67;;;7.80;81.00;;;;;;9201024;19;20034;-70
2021/12/26 13:06:54;;;;;;;3.13;1.75;;;7.00;82.60;;;;;;9207421;19;20018;-70
2021/12/26 13:10:00;;;;;;;2.08;1.58;;;6.20;84.30;;;;;;9201633;19;20674;-71
2021/12/26 13:13:07;;;;;;;1.25;1.05;;;5.60;85.90;;;;;;9190123;19;20501;-70
2021/12/26 13:16:12;;;;;;;3.35;1.70;;;5.10;87.30;;;;;;9200637;19;20053;-71
2021/12/26 13:19:17;;;;;;;1.33;1.08;;;4.60;88.60;;;;;;9202806;19;20026;-71
2021/12/26 13:22:25;;;;;;;2.05;1.50;;;4.20;90.00;;;;;;9206295;19;20557;-72
2021/12/26 13:25:36;;;;;;;1.83;1.00;;;3.80;90.50;;;;;;9207383;19;20483;-71
2021/12/26 13:28:42;;;;;;;5.30;1.25;;;3.50;91.10;;;;;;9205941;19;20022;-70
2021/12/26 13:31:47;;;;;;;1.02;0.82;;;3.30;91.60;;;;;;9197315;19;20742;-72
2021/12/26 13:35:09;;;;;;;3.00;1.45;;;3.00;92.10;;;;;;9199776;19;20026;-70
2021/12/26 13:38:18;;;;;;;2.15;1.00;;;2.80;92.60;;;;;;9201636;19;20018;-70
2021/12/26 13:41:26;;;;;;;0.52;0.52;;;2.60;93.00;;;;;;9203699;19;20031;-71
2021/12/26 13:44:31;;;;;;;1.88;1.02;;;2.40;93.30;;;;;;9166974;19;20021;-71
2021/12/26 13:47:44;;;;;;;0.55;0.55;;;2.30;93.70;;;;;;9167722;19;20026;-71
2021/12/26 13:50:49;;;;;;;1.40;0.93;;;2.10;94.10;;;;;;9167280;19;20408;-72
2021/12/26 13:54:05;;;;;;;2.03;1.33;;;2.10;94.40;;;;;;9169352;19;20018;-72
2021/12/26 13:57:16;;;;;;;5.18;0.85;;;1.90;94.70;;;;;;9169619;19;20027;-73
2021/12/26 14:00:21;;;;;;;1.13;0.65;;;1.80;95.00;;;;;;9170321;19;20019;-73
2021/12/26 14:03:27;;;;;;;1.17;0.82;;;1.70;95.20;;;;;;9165113;19;20014;-73
2021/12/26 14:06:32;;;;;;;1.33;0.57;;;1.60;95.50;;;;;;9164851;19;20555;-73
2021/12/26 14:09:46;;;;;;;4.57;0.52;;;1.70;95.70;;;;;;9170110;19;20040;-73
2021/12/26 14:12:54;;;;;;;;;;;1.60;96.20;;;;;;9174318;19;20026;-73
2021/12/26 14:16:00;;;;;;;0.45;0.45;;;1.50;96.10;;;;;;9174971;19;19919;-74
2021/12/26 14:19:09;;;;;;;0.57;0.50;;;1.50;96.30;;;;;;9176022;19;20368;-73
2021/12/26 14:22:14;;;;;;;0.90;0.70;;;1.40;96.50;;;;;;9172649;19;20015;-73
2021/12/26 14:25:21;;;;;;;1.55;0.93;;;1.40;96.70;;;;;;9175308;19;20019;-73
2021/12/26 14:28:27;;;;;;;0.73;0.35;;;1.30;96.80;;;;;;9176052;19;20031;-73
2021/12/26 14:31:34;;;;;;;0.50;0.50;;;1.30;96.90;;;;;;9173900;19;20393;-73
2021/12/26 14:34:46;;;;;;;0.55;0.50;;;1.30;97.00;;;;;;9169615;19;20034;-74
2021/12/26 14:37:51;;;;;;;1.27;0.73;;;1.30;97.10;;;;;;9173063;19;20018;-73
2021/12/26 14:41:02;;;;;;;0.70;0.55;;;1.20;97.10;;;;;;9177748;19;20511;-73
2021/12/26 14:44:15;;;;;;;0.90;0.70;;;1.20;97.20;;;;;;9178927;19;20483;-74
2021/12/26 14:47:26;;;;;;;0.95;0.60;;;1.20;97.30;;;;;;9178249;19;20529;-75
2021/12/26 14:50:32;;;;;;;0.52;0.52;;;1.20;97.40;;;;;;9178629;19;20022;-75
2021/12/26 14:53:38;;;;;;;0.25;0.25;;;1.10;97.50;;;;;;9177075;19;20022;-74
2021/12/26 14:56:51;;;;;;;0.65;0.52;;;1.10;97.50;;;;;;9179708;19;20010;-74
2021/12/26 14:59:58;;;;;;;0.45;0.30;;;1.10;97.70;;;;;;9179260;19;20018;-74
2021/12/26 15:03:03;;;;;;;0.38;0.38;;;1.10;97.70;;;;;;9180147;19;20007;-74
2021/12/26 15:06:15;;;;;;;0.77;0.70;;;1.10;97.80;;;;;;9177341;19;20022;-75
2021/12/26 15:09:38;;;;;;;0.70;0.60;;;1.10;97.90;;;;;;9179273;19;20064;-74
2021/12/26 15:12:49;;;;;;;0.32;0.32;;;1.10;98.00;;;;;;9178039;19;20030;-74
2021/12/26 15:15:55;;;;;;;0.60;0.60;;;1.10;98.00;;;;;;9180704;19;20044;-74
2021/12/26 15:19:00;;;;;;;0.32;0.32;;;1.10;98.10;;;;;;9179753;19;20014;-74
2021/12/26 15:22:07;;;;;;;1.27;0.60;;;1.00;98.10;;;;;;9174452;19;20022;-73
2021/12/26 15:25:12;;;;;;;0.43;0.40;;;1.10;98.30;;;;;;9177566;19;20448;-73
2021/12/26 15:28:21;;;;;;;0.95;0.50;;;1.00;98.30;;;;;;9177985;19;20010;-73
2021/12/26 15:31:31;;;;;;;2.50;0.55;;;1.10;98.40;;;;;;9177747;19;20017;-73
2021/12/26 15:34:36;;;;;;;2.05;0.65;;;1.10;98.40;;;;;;9177880;19;20026;-73
2021/12/26 15:37:41;;;;;;;1.00;0.57;;;1.00;98.40;;;;;;9177778;19;20015;-75
2021/12/26 15:40:46;;;;;;;1.23;0.70;;;1.10;98.50;;;;;;9178120;19;20019;-74
2021/12/26 15:43:53;;;;;;;0.50;0.38;;;1.10;98.50;;;;;;9177601;19;20391;-74
2021/12/26 15:47:00;;;;;;;1.10;0.90;;;1.10;98.60;;;;;;9176854;19;20019;-74
2021/12/26 15:50:06;;;;;;;0.90;0.50;;;1.10;98.70;;;;;;9177910;19;20025;-75
2021/12/26 15:53:11;;;;;;;0.30;0.30;;;1.10;98.70;;;;;;9176232;19;20042;-74
2021/12/26 15:56:16;;;;;;;0.68;0.45;;;1.00;98.70;;;;;;9178240;19;20018;-74
2021/12/26 15:59:24;;;;;;;1.23;0.70;;;1.10;98.70;;;;;;9177757;19;20129;-74
2021/12/26 16:02:29;;;;;;;0.52;0.50;;;1.10;98.80;;;;;;9176579;19;20018;-74
2021/12/26 16:05:34;;;;;;;0.70;0.63;;;1.10;98.80;;;;;;9172679;19;20368;-73
2021/12/26 16:08:39;;;;;;;0.22;0.20;;;1.10;98.80;;;;;;9168180;19;20018;-73
2021/12/26 16:11:46;;;;;;;0.82;0.47;;;1.10;98.80;;;;;;9163995;19;20010;-73
2021/12/26 16:14:53;;;;;;;1.08;0.80;;;1.10;98.80;;;;;;9169467;19;20018;-72
2021/12/26 16:17:58;;;;;;;1.23;0.63;;;1.10;98.90;;;;;;9167146;19;20037;-73
2021/12/26 16:21:06;;;;;;;0.57;0.47;;;1.10;98.90;;;;;;9167540;19;20019;-73
2021/12/26 16:24:11;;;;;;;1.25;0.90;;;1.00;98.90;;;;;;9168336;19;20018;-73
2021/12/26 16:27:17;;;;;;;0.45;0.45;;;1.10;99.00;;;;;;9169271;19;20010;-73
2021/12/26 16:30:28;;;;;;;0.63;0.35;;;1.10;99.00;;;;;;9170421;19;20010;-73
2021/12/26 16:33:33;;;;;;;0.43;0.43;;;1.10;99.00;;;;;;9169811;19;20660;-73
2021/12/26 16:36:38;;;;;;;0.30;0.30;;;1.10;99.00;;;;;;9169812;19;20023;-73
2021/12/26 16:39:43;;;;;;;0.55;0.30;;;1.10;99.00;;;;;;9168183;19;20031;-73
2021/12/26 16:42:49;;;;;;;0.80;0.55;;;1.10;99.10;;;;;;9170246;19;20018;-73
2021/12/26 16:45:56;;;;;;;0.30;0.30;;;1.10;99.10;;;;;;9169513;19;20015;-73
2021/12/26 16:49:03;;;;;;;0.60;0.32;;;1.10;99.10;;;;;;9167917;19;20688;-73
2021/12/26 16:52:08;;;;;;;0.52;0.22;;;1.00;99.10;;;;;;9168024;19;20069;-73
2021/12/26 16:55:14;;;;;;;0.40;0.40;;;1.10;99.10;;;;;;9165748;19;20022;-73
2021/12/26 16:58:19;;;;;;;0.82;0.40;;;1.10;99.10;;;;;;9165010;19;20022;-73
2021/12/26 17:01:27;;;;;;;1.02;0.57;;;1.10;99.20;;;;;;9165807;19;20030;-71
2021/12/26 17:04:32;;;;;;;0.75;0.35;;;1.10;99.50;;;;;;9166539;19;20022;-72
2021/12/26 17:07:37;;;;;;;0.85;0.50;;;1.10;99.20;;;;;;9166110;19;20048;-71
2021/12/26 17:10:42;;;;;;;0.30;0.30;;;1.10;99.20;;;;;;9164374;19;20049;-71
2021/12/26 17:13:50;;;;;;;0.68;0.50;;;1.10;99.20;;;;;;9168348;19;20022;-74
2021/12/26 17:16:57;;;;;;;0.70;0.30;;;1.10;99.30;;;;;;9167526;19;20047;-71
2021/12/26 17:20:03;;;;;;;0.47;0.47;;;1.10;99.30;;;;;;9176342;19;20011;-73
2021/12/26 17:23:08;;;;;;;0.73;0.50;;;1.10;99.30;;;;;;9178189;19;20018;-71
2021/12/26 17:26:17;;;;;;;0.45;0.38;;;1.10;99.40;;;;;;9175478;19;20671;-71
2021/12/26 17:29:22;;;;;;;0.28;0.22;;;1.10;99.40;;;;;;9173702;19;20023;-72
2021/12/26 17:32:30;;;;;;;0.75;0.50;;;1.10;99.40;;;;;;9174191;19;20517;-71
2021/12/26 17:35:37;;;;;;;0.30;0.30;;;1.10;99.40;;;;;;9174263;19;20021;-71
2021/12/26 17:38:43;;;;;;;0.70;0.40;;;1.10;99.40;;;;;;9174080;19;20379;-71
2021/12/26 17:41:48;;;;;;;1.38;0.50;;;1.10;99.40;;;;;;9176099;19;20052;-73
2021/12/26 17:44:54;;;;;;;0.90;0.32;;;1.10;99.40;;;;;;9175200;19;20590;-71
2021/12/26 17:48:02;;;;;;;0.90;0.70;;;1.10;99.50;;;;;;9174068;19;20022;-71
2021/12/26 17:51:07;;;;;;;1.45;0.65;;;1.10;99.50;;;;;;9175055;19;20023;-71
2021/12/26 17:54:12;;;;;;;0.50;0.50;;;1.20;99.50;;;;;;9176249;19;20022;-71
2021/12/26 17:57:18;;;;;;;0.32;0.30;;;1.20;99.50;;;;;;9176587;19;20060;-70
2021/12/26 18:00:24;;;;;;;0.52;0.52;;;1.20;99.50;;;;;;9177391;19;20056;-71
2021/12/26 18:03:32;;;;;;;0.35;0.35;;;1.20;99.60;;;;;;9176662;19;20019;-71
2021/12/26 18:06:40;;;;;;;0.35;0.32;;;1.20;99.60;;;;;;9174327;19;20022;-71
2021/12/26 18:09:45;;;;;;;0.50;0.50;;;1.20;99.60;;;;;;9169298;19;20026;-73
2021/12/26 18:12:50;;;;;;;0.70;0.55;;;1.20;99.60;;;;;;9173997;19;20513;-72
2021/12/26 18:15:56;;;;;;;0.45;0.40;;;1.20;99.60;;;;;;9174637;19;20757;-72
2021/12/26 18:19:05;;;;;;;0.63;0.25;;;1.30;99.60;;;;;;9174061;19;20340;-72
2021/12/26 18:22:10;;;;;;;0.47;0.47;;;1.30;99.60;;;;;;9171686;19;20022;-72
2021/12/26 18:25:16;;;;;;;0.88;0.60;;;1.30;99.70;;;;;;9170369;19;20053;-72
2021/12/26 18:28:21;;;;;;;1.02;0.60;;;1.30;99.70;;;;;;9173302;19;20010;-72
2021/12/26 18:31:28;;;;;;;1.55;0.82;;;1.30;99.70;;;;;;9173958;19;20753;-71
2021/12/26 18:34:36;;;;;;;0.75;0.75;;;1.30;99.70;;;;;;9173226;19;20033;-72
2021/12/26 18:37:41;;;;;;;0.77;0.60;;;1.30;99.70;;;;;;9174800;19;20021;-70
2021/12/26 18:40:46;;;;;;;0.60;0.40;;;1.30;99.80;;;;;;9173156;19;20022;-71
2021/12/26 18:43:52;;;;;;;0.45;0.40;;;1.30;99.70;;;;;;9173691;19;20022;-70
2021/12/26 18:46:57;;;;;;;0.32;0.32;;;1.30;99.70;;;;;;9172115;19;20019;-73
2021/12/26 18:50:06;;;;;;;0.40;0.40;;;1.30;99.80;;;;;;9172333;19;20022;-70
2021/12/26 18:53:12;;;;;;;0.47;0.47;;;1.30;99.80;;;;;;9171187;19;20026;-71
2021/12/26 18:56:17;;;;;;;0.80;0.80;;;1.40;99.80;;;;;;9171763;19;20539;-72
2021/12/26 18:59:24;;;;;;;0.70;0.50;;;1.40;99.80;;;;;;9170449;19;20022;-72
2021/12/26 19:02:29;;;;;;;0.98;0.50;;;1.40;99.90;;;;;;9170464;19;20455;-71
2021/12/26 19:05:41;;;;;;;0.80;0.65;;;1.40;99.80;;;;;;9172890;19;20018;-73
2021/12/26 19:08:49;;;;;;;0.57;0.50;;;1.40;99.90;;;;;;9167629;19;20021;-73
2021/12/26 19:11:54;;;;;;;0.77;0.70;;;1.40;99.90;;;;;;9171563;19;20017;-72
2021/12/26 19:14:59;;;;;;;0.98;0.65;;;1.40;99.90;;;;;;9172509;19;20049;-73
2021/12/26 19:18:05;;;;;;;0.60;0.60;;;1.40;99.90;;;;;;9173548;19;20048;-70
2021/12/26 19:21:13;;;;;;;0.60;0.60;;;1.40;99.90;;;;;;9170644;19;20030;-68
2021/12/26 19:24:18;;;;;;;0.50;0.43;;;1.40;99.90;;;;;;9168353;19;20762;-69
2021/12/26 19:27:23;;;;;;;0.50;0.50;;;1.50;99.90;;;;;;9169829;19;20014;-68
2021/12/26 19:30:28;;;;;;;0.73;0.73;;;1.50;99.90;;;;;;9168216;19;20022;-68
2021/12/26 19:33:35;;;;;;;0.38;0.38;;;1.40;99.90;;;;;;9167806;19;20023;-68
2021/12/26 19:36:44;;;;;;;0.43;0.43;;;1.50;99.90;;;;;;9169713;19;20014;-70
2021/12/26 19:39:50;;;;;;;0.60;0.60;;;1.50;99.90;;;;;;9167105;19;20010;-68
2021/12/26 19:42:57;;;;;;;0.60;0.47;;;1.50;99.90;;;;;;9169278;19;20757;-69
2021/12/26 19:46:04;;;;;;;0.95;0.60;;;1.40;99.90;;;;;;9168328;19;20022;-70
2021/12/26 19:49:09;;;;;;;1.10;0.70;;;1.50;99.90;;;;;;9169283;19;20019;-68
2021/12/26 19:52:17;;;;;;;0.43;0.43;;;1.50;99.90;;;;;;9170736;19;20018;-68
2021/12/26 19:55:22;;;;;;;0.63;0.45;;;1.50;99.90;;;;;;9168126;19;20018;-69
2021/12/26 19:58:27;;;;;;;0.68;0.60;;;1.50;99.90;;;;;;9168838;19;20014;-68
2021/12/26 20:01:32;;;;;;;0.50;0.50;;;1.50;99.90;;;;;;9170169;19;20029;-68
2021/12/26 20:04:37;;;;;;;0.40;0.30;;;1.50;99.90;;;;;;9165843;19;20025;-68
2021/12/26 20:07:45;;;;;;;0.60;0.47;;;1.50;99.90;;;;;;9165979;19;20505;-68
2021/12/26 20:10:50;;;;;;;0.38;0.38;;;1.50;99.90;;;;;;9162856;19;20022;-68
2021/12/26 20:13:55;;;;;;;0.60;0.50;;;1.50;99.90;;;;;;9166655;19;20022;-68
2021/12/26 20:17:00;;;;;;;0.22;0.22;;;1.50;99.90;;;;;;9168705;19;20044;-68
2021/12/26 20:20:06;;;;;;;0.70;0.57;;;1.50;99.90;;;;;;9168515;19;20044;-69
2021/12/26 20:23:13;;;;;;;0.70;0.60;;;1.50;99.90;;;;;;9169136;19;20054;-70
2021/12/26 20:26:21;;;;;;;0.70;0.70;;;1.50;99.90;;;;;;9169803;19;20022;-68
2021/12/26 20:29:26;;;;;;;1.00;0.55;;;1.50;99.90;;;;;;9170821;19;20025;-68
2021/12/26 20:32:31;;;;;;;0.40;0.40;;;1.50;99.90;;;;;;9170587;19;20046;-68
2021/12/26 20:35:36;;;;;;;0.82;0.82;;;1.50;99.90;;;;;;9168057;19;20457;-68
2021/12/26 20:38:44;;;;;;;1.00;0.52;;;1.50;99.90;;;;;;9169039;19;20015;-68
2021/12/26 20:41:49;;;;;;;0.50;0.50;;;1.60;99.90;;;;;;9168735;19;20022;-68
2021/12/26 20:44:54;;;;;;;0.60;0.55;;;1.60;99.90;;;;;;9165501;19;20018;-69
2021/12/26 20:47:59;;;;;;;0.43;0.43;;;1.60;99.90;;;;;;9165194;19;20018;-68
2021/12/26 20:51:06;;;;;;;1.08;0.45;;;1.60;99.90;;;;;;9166587;19;20018;-68
2021/12/26 20:54:14;;;;;;;1.13;0.70;;;1.60;99.90;;;;;;9169268;19;20057;-68
2021/12/26 20:57:20;;;;;;;0.52;0.52;;;1.60;99.90;;;;;;9171765;19;20782;-68
2021/12/26 21:00:28;;;;;;;3.53;0.70;;;1.60;99.90;;;;;;9173965;19;20561;-68
2021/12/26 21:03:33;;;;;;;0.60;0.60;;;1.60;99.90;;;;;;9173068;19;20479;-68
2021/12/26 21:06:39;;;;;;;0.52;0.52;;;1.60;99.90;;;;;;9176403;19;20010;-68
2021/12/26 21:09:46;;;;;;;0.32;0.32;;;1.60;99.90;;;;;;9173004;19;20140;-68
2021/12/26 21:12:51;;;;;;;0.73;0.55;;;1.70;99.90;;;;;;9172673;19;20022;-68
2021/12/26 21:15:57;;;;;;;0.85;0.60;;;1.70;99.90;;;;;;9172378;19;20023;-68
2021/12/26 21:19:02;;;;;;;1.42;0.68;;;1.60;99.90;;;;;;9175223;19;20063;-68
2021/12/26 21:22:08;;;;;;;0.70;0.40;;;1.70;99.90;;;;;;9173245;19;20011;-68
2021/12/26 21:25:16;;;;;;;0.60;0.60;;;1.70;99.90;;;;;;9171653;19;20021;-69
2021/12/26 21:28:21;;;;;;;0.55;0.55;;;1.70;99.90;;;;;;9173661;19;20053;-68
2021/12/26 21:31:26;;;;;;;0.40;0.40;;;1.70;99.90;;;;;;9179236;19;20017;-69
2021/12/26 21:34:31;;;;;;;1.45;0.63;;;1.70;99.90;;;;;;9176758;19;20048;-69
2021/12/26 21:37:36;;;;;;;1.17;0.90;;;1.70;99.90;;;;;;9176233;19;20506;-68
2021/12/26 21:40:43;;;;;;;0.60;0.60;;;1.70;99.90;;;;;;9177850;19;20487;-68
2021/12/26 21:43:48;;;;;;;0.75;0.50;;;1.70;99.90;;;;;;9175429;19;20026;-69
2021/12/26 21:46:53;;;;;;;0.70;0.70;;;1.70;99.90;;;;;;9177791;19;20019;-69
2021/12/26 21:49:58;;;;;;;1.58;1.05;;;1.70;99.90;;;;;;9176358;19;20010;-69
2021/12/26 21:53:03;;;;;;;0.63;0.57;;;1.70;99.90;;;;;;9176566;19;20482;-69
2021/12/26 21:56:11;;;;;;;0.75;0.57;;;1.70;99.90;;;;;;9175387;19;20025;-68
2021/12/26 21:59:17;;;;;;;0.60;0.60;;;1.70;99.90;;;;;;9177084;19;20022;-69
2021/12/26 22:02:22;;;;;;;0.40;0.40;;;1.70;99.90;;;;;;9173510;19;20014;-68
2021/12/26 22:05:28;;;;;;;0.47;0.47;;;1.70;99.90;;;;;;9173466;19;20018;-68
2021/12/26 22:08:33;;;;;;;0.50;0.50;;;1.70;99.90;;;;;;9172752;19;20018;-68
2021/12/26 22:11:41;;;;;;;0.40;0.40;;;1.70;99.90;;;;;;9169123;19;20045;-68
2021/12/26 22:14:51;;;;;;;0.22;0.22;;;1.70;99.90;;;;;;9174109;19;20011;-68
2021/12/26 22:17:56;;;;;;;0.60;0.60;;;1.70;99.90;;;;;;9176624;19;20383;-68
2021/12/26 22:21:01;;;;;;;0.95;0.68;;;1.70;99.90;;;;;;9179735;19;20025;-68
2021/12/26 22:24:07;;;;;;;0.80;0.80;;;1.70;99.90;;;;;;9178026;19;20022;-69
2021/12/26 22:27:15;;;;;;;0.73;0.70;;;1.70;99.90;;;;;;9175273;19;20026;-68
2021/12/26 22:30:23;;;;;;;0.80;0.80;;;1.70;99.90;;;;;;9174286;19;20098;-68
2021/12/26 22:33:28;;;;;;;0.70;0.70;;;1.70;99.90;;;;;;9173488;19;20024;-68
2021/12/26 22:36:33;;;;;;;0.57;0.57;;;1.70;99.90;;;;;;9169846;19;20011;-68
2021/12/26 22:39:38;;;;;;;1.35;0.90;;;1.80;99.90;;;;;;9171791;19;20018;-68
2021/12/26 22:42:47;;;;;;;0.98;0.73;;;1.80;99.90;;;;;;9172616;19;20026;-68
2021/12/26 22:45:52;;;;;;;0.90;0.50;;;1.80;99.90;;;;;;9175286;19;20034;-68
2021/12/26 22:48:57;;;;;;;0.50;0.50;;;1.80;99.90;;;;;;9174608;19;20030;-68
2021/12/26 22:52:02;;;;;;;0.50;0.50;;;1.80;99.90;;;;;;9176571;19;20361;-68
2021/12/26 22:55:09;;;;;;;0.57;0.57;;;1.80;99.90;;;;;;9178160;19;20010;-69
2021/12/26 22:58:17;;;;;;;0.80;0.60;;;1.80;99.90;;;;;;9175760;19;20049;-68
2021/12/26 23:01:22;;;;;;;1.08;0.63;;;1.80;99.90;;;;;;9175828;19;20029;-69
2021/12/26 23:04:27;;;;;;;0.90;0.68;;;1.80;99.90;;;;;;9176699;19;20094;-68
2021/12/26 23:07:34;;;;;;;0.55;0.55;;;1.80;99.90;;;;;;9177956;19;20018;-68
2021/12/26 23:10:40;;;;;;;0.82;0.80;;;1.80;99.90;;;;;;9173228;19;20056;-68
2021/12/26 23:13:48;;;;;;;0.82;0.50;;;1.80;99.90;;;;;;9178022;19;20018;-68
2021/12/26 23:16:53;;;;;;;0.90;0.80;;;1.70;99.90;;;;;;9176982;19;20034;-68
2021/12/26 23:20:09;;;;;;;1.65;0.70;;;1.80;99.90;;;;;;9180250;19;20015;-69
2021/12/26 23:23:16;;;;;;;0.80;0.68;;;1.80;99.90;;;;;;9174987;19;20014;-68
2021/12/26 23:26:21;;;;;;;0.60;0.60;;;1.80;99.90;;;;;;9175454;19;20018;-69
2021/12/26 23:29:29;;;;;;;0.60;0.60;;;1.80;99.90;;;;;;9175674;19;20110;-69
2021/12/26 23:32:34;;;;;;;0.65;0.60;;;1.90;99.90;;;;;;9177201;19;20487;-68
2021/12/26 23:35:39;;;;;;;0.88;0.70;;;1.90;99.90;;;;;;9176767;19;20471;-68
2021/12/26 23:38:44;;;;;;;0.57;0.30;;;1.90;99.90;;;;;;9173857;19;20019;-68
2021/12/26 23:41:49;;;;;;;0.50;0.30;;;1.90;99.90;;;;;;9175722;19;20025;-69
2021/12/26 23:44:59;;;;;;;0.70;0.70;;;1.90;99.90;;;;;;9176570;19;20029;-68
2021/12/26 23:48:07;;;;;;;0.70;0.70;;;1.90;99.90;;;;;;9175336;19;20019;-68
2021/12/26 23:51:12;;;;;;;0.70;0.55;;;1.90;99.90;;;;;;9177096;19;20031;-68
2021/12/26 23:54:17;;;;;;;0.43;0.43;;;1.90;99.90;;;;;;9176530;19;20014;-69
2021/12/26 23:57:22;;;;;;;0.65;0.60;;;2.00;99.90;;;;;;9177254;19;20048;-69
